sensor_id;sensor_type;location;lat;lon;timestamp;pressure;altitude;pressure_sealevel;temperature;humidity
21980;BME280;11154;48.558;9.234;2023-10-08T00:00:17;98402.38;;;18.38;58.33
21980;BME280;11154;48.558;9.234;2023-10-08T00:02:33;98395.53;;;18.36;59.41
21980;BME280;11154;48.558;9.234;2023-10-08T00:04:35;98396.84;;;18.40;59.88
21980;BME280;11154;48.558;9.234;2023-10-08T00:06:38;98396.63;;;18.41;57.97
21980;BME280;11154;48.558;9.234;2023-10-08T00:08:40;98395.63;;;18.42;57.80
21980;BME280;11154;48.558;9.234;2023-10-08T00:10:43;98400.16;;;18.42;58.49
21980;BME280;11154;48.558;9.234;2023-10-08T00:12:44;98397.28;;;18.43;60.57
21980;BME280;11154;48.558;9.234;2023-10-08T00:14:48;98392.94;;;18.42;60.51
21980;BME280;11154;48.558;9.234;2023-10-08T00:16:53;98401.56;;;18.38;59.54
21980;BME280;11154;48.558;9.234;2023-10-08T00:18:55;98395.16;;;18.39;61.11
21980;BME280;11154;48.558;9.234;2023-10-08T00:21:00;98385.59;;;18.36;61.38
21980;BME280;11154;48.558;9.234;2023-10-08T00:23:17;98383.94;;;18.35;60.92
21980;BME280;11154;48.558;9.234;2023-10-08T00:25:19;98385.97;;;18.33;61.60
21980;BME280;11154;48.558;9.234;2023-10-08T00:27:21;98374.53;;;18.31;60.67
21980;BME280;11154;48.558;9.234;2023-10-08T00:29:23;98380.56;;;18.33;60.85
21980;BME280;11154;48.558;9.234;2023-10-08T00:31:25;98372.50;;;18.33;61.33
21980;BME280;11154;48.558;9.234;2023-10-08T00:33:31;98371.84;;;18.31;61.56
21980;BME280;11154;48.558;9.234;2023-10-08T00:35:37;98367.22;;;18.25;60.78
21980;BME280;11154;48.558;9.234;2023-10-08T00:37:38;98363.56;;;18.18;61.28
21980;BME280;11154;48.558;9.234;2023-10-08T00:39:42;98364.63;;;18.17;62.81
21980;BME280;11154;48.558;9.234;2023-10-08T00:41:46;98354.22;;;18.14;62.51
21980;BME280;11154;48.558;9.234;2023-10-08T00:43:47;98352.28;;;18.08;62.18
21980;BME280;11154;48.558;9.234;2023-10-08T00:45:51;98354.50;;;18.05;64.17
21980;BME280;11154;48.558;9.234;2023-10-08T00:47:52;98349.47;;;18.02;64.40
21980;BME280;11154;48.558;9.234;2023-10-08T00:49:56;98352.16;;;18.02;64.83
21980;BME280;11154;48.558;9.234;2023-10-08T00:52:09;98346.72;;;17.96;64.82
21980;BME280;11154;48.558;9.234;2023-10-08T00:54:25;98345.25;;;17.93;66.01
21980;BME280;11154;48.558;9.234;2023-10-08T00:56:35;98351.16;;;17.89;66.11
21980;BME280;11154;48.558;9.234;2023-10-08T00:58:51;98345.13;;;17.87;68.12
21980;BME280;11154;48.558;9.234;2023-10-08T01:00:54;98349.50;;;17.88;68.45
21980;BME280;11154;48.558;9.234;2023-10-08T01:02:59;98346.00;;;17.87;67.75
21980;BME280;11154;48.558;9.234;2023-10-08T01:05:02;98337.06;;;17.87;66.93
21980;BME280;11154;48.558;9.234;2023-10-08T01:07:03;98339.75;;;17.87;66.73
21980;BME280;11154;48.558;9.234;2023-10-08T01:09:12;98331.06;;;17.85;66.34
21980;BME280;11154;48.558;9.234;2023-10-08T01:11:22;98339.28;;;17.83;65.59
21980;BME280;11154;48.558;9.234;2023-10-08T01:13:45;98337.66;;;17.82;65.41
21980;BME280;11154;48.558;9.234;2023-10-08T01:15:47;98334.56;;;17.85;65.47
21980;BME280;11154;48.558;9.234;2023-10-08T01:17:51;98331.06;;;17.85;65.79
21980;BME280;11154;48.558;9.234;2023-10-08T01:19:54;98335.22;;;17.87;65.76
21980;BME280;11154;48.558;9.234;2023-10-08T01:22:10;98341.81;;;17.85;64.54
21980;BME280;11154;48.558;9.234;2023-10-08T01:24:17;98336.03;;;17.88;65.19
21980;BME280;11154;48.558;9.234;2023-10-08T01:26:24;98343.84;;;17.83;64.75
21980;BME280;11154;48.558;9.234;2023-10-08T01:28:25;98331.06;;;17.85;64.85
21980;BME280;11154;48.558;9.234;2023-10-08T01:30:29;98335.03;;;17.89;64.17
21980;BME280;11154;48.558;9.234;2023-10-08T01:32:35;98330.94;;;17.93;63.54
21980;BME280;11154;48.558;9.234;2023-10-08T01:34:37;98322.94;;;17.99;63.63
21980;BME280;11154;48.558;9.234;2023-10-08T01:36:39;98329.16;;;18.00;63.49
21980;BME280;11154;48.558;9.234;2023-10-08T01:38:45;98319.69;;;18.04;63.50
21980;BME280;11154;48.558;9.234;2023-10-08T01:40:49;98329.16;;;18.00;62.61
21980;BME280;11154;48.558;9.234;2023-10-08T01:42:51;98325.56;;;18.07;62.89
21980;BME280;11154;48.558;9.234;2023-10-08T01:44:53;98322.19;;;18.05;62.32
21980;BME280;11154;48.558;9.234;2023-10-08T01:46:56;98323.88;;;18.06;62.63
21980;BME280;11154;48.558;9.234;2023-10-08T01:48:58;98318.28;;;18.08;62.30
21980;BME280;11154;48.558;9.234;2023-10-08T01:51:07;98324.34;;;18.09;62.39
21980;BME280;11154;48.558;9.234;2023-10-08T01:53:11;98322.66;;;18.08;61.75
21980;BME280;11154;48.558;9.234;2023-10-08T01:55:17;98313.56;;;18.09;62.49
21980;BME280;11154;48.558;9.234;2023-10-08T01:57:19;98312.84;;;18.01;61.94
21980;BME280;11154;48.558;9.234;2023-10-08T01:59:21;98309.03;;;17.96;62.25
21980;BME280;11154;48.558;9.234;2023-10-08T02:01:22;98311.06;;;17.94;62.70
21980;BME280;11154;48.558;9.234;2023-10-08T02:03:24;98303.38;;;17.91;62.79
21980;BME280;11154;48.558;9.234;2023-10-08T02:05:25;98310.16;;;17.87;62.01
21980;BME280;11154;48.558;9.234;2023-10-08T02:07:31;98310.34;;;17.85;62.80
21980;BME280;11154;48.558;9.234;2023-10-08T02:09:32;98302.47;;;17.84;62.64
21980;BME280;11154;48.558;9.234;2023-10-08T02:11:46;98309.88;;;17.82;62.04
21980;BME280;11154;48.558;9.234;2023-10-08T02:13:50;98312.97;;;17.79;63.52
21980;BME280;11154;48.558;9.234;2023-10-08T02:15:52;98314.19;;;17.76;63.54
21980;BME280;11154;48.558;9.234;2023-10-08T02:17:53;98318.03;;;17.74;63.47
21980;BME280;11154;48.558;9.234;2023-10-08T02:19:55;98315.09;;;17.69;64.92
21980;BME280;11154;48.558;9.234;2023-10-08T02:21:57;98314.25;;;17.68;65.95
21980;BME280;11154;48.558;9.234;2023-10-08T02:23:59;98314.81;;;17.64;65.44
21980;BME280;11154;48.558;9.234;2023-10-08T02:26:03;98312.13;;;17.64;65.62
21980;BME280;11154;48.558;9.234;2023-10-08T02:28:07;98308.41;;;17.65;65.43
21980;BME280;11154;48.558;9.234;2023-10-08T02:30:11;98302.66;;;17.68;63.47
21980;BME280;11154;48.558;9.234;2023-10-08T02:32:12;98314.63;;;17.65;61.81
21980;BME280;11154;48.558;9.234;2023-10-08T02:34:15;98307.41;;;17.66;61.65
21980;BME280;11154;48.558;9.234;2023-10-08T02:36:17;98314.63;;;17.65;61.38
21980;BME280;11154;48.558;9.234;2023-10-08T02:38:19;98310.09;;;17.66;61.73
21980;BME280;11154;48.558;9.234;2023-10-08T02:40:23;98309.50;;;17.70;62.12
21980;BME280;11154;48.558;9.234;2023-10-08T02:42:27;98313.25;;;17.69;61.79
21980;BME280;11154;48.558;9.234;2023-10-08T02:44:30;98319.72;;;17.75;62.15
21980;BME280;11154;48.558;9.234;2023-10-08T02:46:32;98318.03;;;17.74;62.11
21980;BME280;11154;48.558;9.234;2023-10-08T02:48:34;98320.56;;;17.75;62.24
21980;BME280;11154;48.558;9.234;2023-10-08T02:50:36;98322.41;;;17.75;61.69
21980;BME280;11154;48.558;9.234;2023-10-08T02:52:39;98325.09;;;17.75;62.07
21980;BME280;11154;48.558;9.234;2023-10-08T02:54:40;98333.72;;;17.70;61.40
21980;BME280;11154;48.558;9.234;2023-10-08T02:56:42;98335.59;;;17.70;62.27
21980;BME280;11154;48.558;9.234;2023-10-08T02:58:45;98333.91;;;17.69;62.33
21980;BME280;11154;48.558;9.234;2023-10-08T03:00:49;98328.94;;;17.66;63.39
21980;BME280;11154;48.558;9.234;2023-10-08T03:02:53;98335.31;;;17.65;63.79
21980;BME280;11154;48.558;9.234;2023-10-08T03:04:55;98332.16;;;17.61;64.27
21980;BME280;11154;48.558;9.234;2023-10-08T03:06:56;98334.94;;;17.68;63.92
21980;BME280;11154;48.558;9.234;2023-10-08T03:08:58;98328.81;;;17.74;63.86
21980;BME280;11154;48.558;9.234;2023-10-08T03:11:04;98333.84;;;17.77;63.65
21980;BME280;11154;48.558;9.234;2023-10-08T03:13:07;98322.88;;;17.78;63.27
21980;BME280;11154;48.558;9.234;2023-10-08T03:15:11;98328.09;;;17.80;62.15
21980;BME280;11154;48.558;9.234;2023-10-08T03:17:16;98320.03;;;17.80;62.02
21980;BME280;11154;48.558;9.234;2023-10-08T03:19:22;98327.25;;;17.79;61.67
21980;BME280;11154;48.558;9.234;2023-10-08T03:21:25;98322.72;;;17.80;60.46
21980;BME280;11154;48.558;9.234;2023-10-08T03:23:40;98319.38;;;17.78;60.40
21980;BME280;11154;48.558;9.234;2023-10-08T03:25:47;98327.63;;;17.76;60.83
21980;BME280;11154;48.558;9.234;2023-10-08T03:27:56;98316.66;;;17.78;60.92
21980;BME280;11154;48.558;9.234;2023-10-08T03:29:59;98316.66;;;17.78;60.71
21980;BME280;11154;48.558;9.234;2023-10-08T03:32:01;98313.31;;;17.76;60.57
21980;BME280;11154;48.558;9.234;2023-10-08T03:34:07;98311.66;;;17.75;60.55
21980;BME280;11154;48.558;9.234;2023-10-08T03:36:13;98317.03;;;17.75;60.89
21980;BME280;11154;48.558;9.234;2023-10-08T03:38:21;98312.59;;;17.67;60.80
21980;BME280;11154;48.558;9.234;2023-10-08T03:40:28;98312.13;;;17.64;61.14
21980;BME280;11154;48.558;9.234;2023-10-08T03:42:42;98327.81;;;17.60;60.83
21980;BME280;11154;48.558;9.234;2023-10-08T03:44:49;98319.94;;;17.59;62.37
21980;BME280;11154;48.558;9.234;2023-10-08T03:46:52;98325.31;;;17.59;63.14
21980;BME280;11154;48.558;9.234;2023-10-08T03:48:57;98317.44;;;17.57;62.21
21980;BME280;11154;48.558;9.234;2023-10-08T03:51:06;98321.13;;;17.56;63.26
21980;BME280;11154;48.558;9.234;2023-10-08T03:53:12;98326.88;;;17.53;62.57
21980;BME280;11154;48.558;9.234;2023-10-08T03:55:13;98325.19;;;17.52;62.78
21980;BME280;11154;48.558;9.234;2023-10-08T03:57:22;98319.19;;;17.50;62.40
21980;BME280;11154;48.558;9.234;2023-10-08T03:59:41;98326.59;;;17.48;63.80
21980;BME280;11154;48.558;9.234;2023-10-08T04:01:43;98323.91;;;17.48;63.60
21980;BME280;11154;48.558;9.234;2023-10-08T04:03:45;98324.09;;;17.47;64.30
21980;BME280;11154;48.558;9.234;2023-10-08T04:05:58;98330.03;;;17.42;63.70
21980;BME280;11154;48.558;9.234;2023-10-08T04:08:16;98335.75;;;17.39;63.51
21980;BME280;11154;48.558;9.234;2023-10-08T04:10:25;98341.06;;;17.33;64.35
21980;BME280;11154;48.558;9.234;2023-10-08T04:13:00;98341.41;;;17.30;64.85
21980;BME280;11154;48.558;9.234;2023-10-08T04:15:01;98344.28;;;17.29;63.80
21980;BME280;11154;48.558;9.234;2023-10-08T04:17:07;98335.19;;;17.30;63.69
21980;BME280;11154;48.558;9.234;2023-10-08T04:19:10;98346.31;;;17.27;63.99
21980;BME280;11154;48.558;9.234;2023-10-08T04:21:12;98337.56;;;17.25;63.68
21980;BME280;11154;48.558;9.234;2023-10-08T04:23:15;98344.63;;;17.26;63.46
21980;BME280;11154;48.558;9.234;2023-10-08T04:25:19;98341.28;;;17.24;63.57
21980;BME280;11154;48.558;9.234;2023-10-08T04:27:21;98337.09;;;17.21;62.32
21980;BME280;11154;48.558;9.234;2023-10-08T04:29:23;98338.78;;;17.22;60.90
21980;BME280;11154;48.558;9.234;2023-10-08T04:31:25;98330.53;;;17.24;61.91
21980;BME280;11154;48.558;9.234;2023-10-08T04:33:28;98337.09;;;17.21;61.38
21980;BME280;11154;48.558;9.234;2023-10-08T04:35:34;98337.75;;;17.23;61.80
21980;BME280;11154;48.558;9.234;2023-10-08T04:37:38;98329.66;;;17.23;61.01
21980;BME280;11154;48.558;9.234;2023-10-08T04:39:42;98322.66;;;17.22;63.13
21980;BME280;11154;48.558;9.234;2023-10-08T04:41:54;98324.88;;;17.19;62.09
21980;BME280;11154;48.558;9.234;2023-10-08T04:44:00;98332.94;;;17.19;65.06
21980;BME280;11154;48.558;9.234;2023-10-08T04:46:07;98315.47;;;17.15;65.84
21980;BME280;11154;48.558;9.234;2023-10-08T04:48:19;98315.00;;;17.11;67.11
21980;BME280;11154;48.558;9.234;2023-10-08T04:50:21;98321.78;;;17.07;66.99
21980;BME280;11154;48.558;9.234;2023-10-08T04:52:30;98319.28;;;17.06;67.10
21980;BME280;11154;48.558;9.234;2023-10-08T04:54:34;98318.63;;;17.04;66.83
21980;BME280;11154;48.558;9.234;2023-10-08T04:56:41;98310.75;;;17.02;67.46
21980;BME280;11154;48.558;9.234;2023-10-08T04:58:42;98317.59;;;17.05;67.74
21980;BME280;11154;48.558;9.234;2023-10-08T05:00:46;98326.78;;;17.10;67.16
21980;BME280;11154;48.558;9.234;2023-10-08T05:02:54;98319.38;;;17.12;67.88
21980;BME280;11154;48.558;9.234;2023-10-08T05:05:04;98321.25;;;17.12;67.25
21980;BME280;11154;48.558;9.234;2023-10-08T05:07:23;98319.03;;;17.15;68.05
21980;BME280;11154;48.558;9.234;2023-10-08T05:09:57;98327.91;;;17.16;67.62
21980;BME280;11154;48.558;9.234;2023-10-08T05:12:20;98337.66;;;17.17;67.41
21980;BME280;11154;48.558;9.234;2023-10-08T05:14:34;98339.31;;;17.18;67.47
21980;BME280;11154;48.558;9.234;2023-10-08T05:16:45;98343.84;;;17.17;67.25
21980;BME280;11154;48.558;9.234;2023-10-08T05:19:00;98343.22;;;17.15;67.61
21980;BME280;11154;48.558;9.234;2023-10-08T05:21:14;98349.41;;;17.16;68.20
21980;BME280;11154;48.558;9.234;2023-10-08T05:23:26;98337.84;;;17.15;68.98
21980;BME280;11154;48.558;9.234;2023-10-08T05:25:54;98339.69;;;17.15;69.90
21980;BME280;11154;48.558;9.234;2023-10-08T05:28:10;98339.88;;;17.13;71.30
21980;BME280;11154;48.558;9.234;2023-10-08T05:30:25;98333.91;;;17.03;71.90
21980;BME280;11154;48.558;9.234;2023-10-08T05:32:38;98344.34;;;16.98;72.72
21980;BME280;11154;48.558;9.234;2023-10-08T05:34:44;98337.88;;;16.93;72.37
21980;BME280;11154;48.558;9.234;2023-10-08T05:37:13;98341.91;;;16.89;72.49
21980;BME280;11154;48.558;9.234;2023-10-08T05:39:32;98343.78;;;16.88;72.59
21980;BME280;11154;48.558;9.234;2023-10-08T05:41:42;98346.81;;;16.85;72.03
21980;BME280;11154;48.558;9.234;2023-10-08T05:43:53;98344.31;;;16.84;72.77
21980;BME280;11154;48.558;9.234;2023-10-08T05:46:14;98349.88;;;16.82;71.78
21980;BME280;11154;48.558;9.234;2023-10-08T05:48:35;98356.59;;;16.78;73.00
21980;BME280;11154;48.558;9.234;2023-10-08T05:50:45;98353.56;;;16.81;72.45
21980;BME280;11154;48.558;9.234;2023-10-08T05:52:55;98359.63;;;16.83;73.36
21980;BME280;11154;48.558;9.234;2023-10-08T05:55:15;98364.13;;;16.83;72.54
21980;BME280;11154;48.558;9.234;2023-10-08T05:57:22;98363.31;;;16.82;73.29
21980;BME280;11154;48.558;9.234;2023-10-08T05:59:41;98366.66;;;16.84;72.67
21980;BME280;11154;48.558;9.234;2023-10-08T06:02:13;98370.38;;;16.83;71.37
21980;BME280;11154;48.558;9.234;2023-10-08T06:04:28;98369.50;;;16.83;72.50
21980;BME280;11154;48.558;9.234;2023-10-08T06:06:53;98368.31;;;16.85;72.09
21980;BME280;11154;48.558;9.234;2023-10-08T06:09:12;98372.03;;;16.84;71.46
21980;BME280;11154;48.558;9.234;2023-10-08T06:11:22;98360.66;;;16.97;70.91
21980;BME280;11154;48.558;9.234;2023-10-08T06:13:41;98373.91;;;16.98;70.75
21980;BME280;11154;48.558;9.234;2023-10-08T06:15:52;98383.84;;;16.98;70.41
21980;BME280;11154;48.558;9.234;2023-10-08T06:18:06;98381.63;;;17.01;69.98
21980;BME280;11154;48.558;9.234;2023-10-08T06:20:09;98381.91;;;17.06;72.34
21980;BME280;11154;48.558;9.234;2023-10-08T06:22:17;98380.91;;;17.07;72.07
21980;BME280;11154;48.558;9.234;2023-10-08T06:24:19;98380.25;;;17.05;72.51
21980;BME280;11154;48.558;9.234;2023-10-08T06:26:21;98376.53;;;17.06;73.28
21980;BME280;11154;48.558;9.234;2023-10-08T06:28:26;98388.50;;;17.04;72.70
21980;BME280;11154;48.558;9.234;2023-10-08T06:30:27;98392.00;;;17.04;73.24
21980;BME280;11154;48.558;9.234;2023-10-08T06:32:36;98387.84;;;17.02;72.88
21980;BME280;11154;48.558;9.234;2023-10-08T06:34:38;98388.84;;;17.01;73.38
21980;BME280;11154;48.558;9.234;2023-10-08T06:36:40;98391.72;;;16.99;73.88
21980;BME280;11154;48.558;9.234;2023-10-08T06:38:43;98390.22;;;16.97;73.68
21980;BME280;11154;48.558;9.234;2023-10-08T06:40:48;98409.41;;;16.94;74.29
21980;BME280;11154;48.558;9.234;2023-10-08T06:42:53;98397.47;;;16.96;74.20
21980;BME280;11154;48.558;9.234;2023-10-08T06:44:57;98388.56;;;16.96;74.91
21980;BME280;11154;48.558;9.234;2023-10-08T06:46:58;98386.25;;;16.93;74.82
21980;BME280;11154;48.558;9.234;2023-10-08T06:49:03;98388.94;;;16.93;75.27
21980;BME280;11154;48.558;9.234;2023-10-08T06:51:06;98387.78;;;16.87;76.91
21980;BME280;11154;48.558;9.234;2023-10-08T06:53:13;98376.84;;;16.89;77.09
21980;BME280;11154;48.558;9.234;2023-10-08T06:55:14;98384.44;;;16.85;77.30
21980;BME280;11154;48.558;9.234;2023-10-08T06:57:18;98371.66;;;16.87;76.89
21980;BME280;11154;48.558;9.234;2023-10-08T06:59:20;98375.66;;;16.91;77.58
21980;BME280;11154;48.558;9.234;2023-10-08T07:01:23;98378.81;;;16.95;76.82
21980;BME280;11154;48.558;9.234;2023-10-08T07:03:25;98380.44;;;17.04;76.62
21980;BME280;11154;48.558;9.234;2023-10-08T07:05:29;98376.34;;;17.08;76.69
21980;BME280;11154;48.558;9.234;2023-10-08T07:07:29;98379.16;;;17.14;77.71
21980;BME280;11154;48.558;9.234;2023-10-08T07:09:32;98382.34;;;17.18;78.01
21980;BME280;11154;48.558;9.234;2023-10-08T07:11:36;98380.13;;;17.21;77.84
21980;BME280;11154;48.558;9.234;2023-10-08T07:13:39;98391.69;;;17.22;75.93
21980;BME280;11154;48.558;9.234;2023-10-08T07:15:43;98388.47;;;17.26;77.69
21980;BME280;11154;48.558;9.234;2023-10-08T07:17:45;98377.38;;;17.29;79.08
21980;BME280;11154;48.558;9.234;2023-10-08T07:19:46;98376.34;;;17.30;78.31
21980;BME280;11154;48.558;9.234;2023-10-08T07:21:52;98371.28;;;17.35;77.64
21980;BME280;11154;48.558;9.234;2023-10-08T07:24:04;98372.78;;;17.38;77.59
21980;BME280;11154;48.558;9.234;2023-10-08T07:26:10;98358.22;;;17.46;78.63
21980;BME280;11154;48.558;9.234;2023-10-08T07:28:12;98366.75;;;17.50;77.77
21980;BME280;11154;48.558;9.234;2023-10-08T07:30:13;98360.00;;;17.54;77.87
21980;BME280;11154;48.558;9.234;2023-10-08T07:32:26;98369.63;;;17.63;77.86
21980;BME280;11154;48.558;9.234;2023-10-08T07:34:30;98371.78;;;17.67;76.90
21980;BME280;11154;48.558;9.234;2023-10-08T07:36:33;98375.75;;;17.71;75.12
21980;BME280;11154;48.558;9.234;2023-10-08T07:38:36;98378.56;;;17.78;75.31
21980;BME280;11154;48.558;9.234;2023-10-08T07:40:37;98380.50;;;17.84;75.10
21980;BME280;11154;48.558;9.234;2023-10-08T07:42:38;98384.47;;;17.88;74.62
21980;BME280;11154;48.558;9.234;2023-10-08T07:44:40;98378.34;;;17.94;75.45
21980;BME280;11154;48.558;9.234;2023-10-08T07:46:41;98385.69;;;18.00;73.61
21980;BME280;11154;48.558;9.234;2023-10-08T07:48:42;98384.94;;;18.06;73.06
21980;BME280;11154;48.558;9.234;2023-10-08T07:50:44;98388.56;;;18.12;72.35
21980;BME280;11154;48.558;9.234;2023-10-08T07:52:46;98384.47;;;18.16;71.28
21980;BME280;11154;48.558;9.234;2023-10-08T07:54:49;98388.94;;;18.24;71.64
21980;BME280;11154;48.558;9.234;2023-10-08T07:56:51;98388.41;;;18.28;69.91
21980;BME280;11154;48.558;9.234;2023-10-08T07:58:54;98385.97;;;18.33;68.66
21980;BME280;11154;48.558;9.234;2023-10-08T08:00:56;98385.41;;;18.38;68.50
21980;BME280;11154;48.558;9.234;2023-10-08T08:03:01;98388.16;;;18.44;67.77
21980;BME280;11154;48.558;9.234;2023-10-08T08:05:05;98393.84;;;18.49;68.12
21980;BME280;11154;48.558;9.234;2023-10-08T08:07:07;98381.25;;;18.56;67.36
21980;BME280;11154;48.558;9.234;2023-10-08T08:09:16;98384.25;;;18.61;67.47
21980;BME280;11154;48.558;9.234;2023-10-08T08:11:21;98385.16;;;18.68;67.07
21980;BME280;11154;48.558;9.234;2023-10-08T08:13:26;98391.69;;;18.80;67.20
21980;BME280;11154;48.558;9.234;2023-10-08T08:15:29;98386.16;;;18.88;67.27
21980;BME280;11154;48.558;9.234;2023-10-08T08:17:30;98391.63;;;18.94;65.34
21980;BME280;11154;48.558;9.234;2023-10-08T08:19:33;98387.97;;;19.02;65.15
21980;BME280;11154;48.558;9.234;2023-10-08T08:21:36;98379.78;;;19.10;65.13
21980;BME280;11154;48.558;9.234;2023-10-08T08:23:37;98378.38;;;19.14;64.98
21980;BME280;11154;48.558;9.234;2023-10-08T08:25:40;98376.75;;;19.19;64.12
21980;BME280;11154;48.558;9.234;2023-10-08T08:27:57;98374.50;;;19.23;64.53
21980;BME280;11154;48.558;9.234;2023-10-08T08:30:00;98382.03;;;19.27;63.66
21980;BME280;11154;48.558;9.234;2023-10-08T08:32:11;98383.09;;;19.33;64.73
21980;BME280;11154;48.558;9.234;2023-10-08T08:34:15;98389.13;;;19.35;63.64
21980;BME280;11154;48.558;9.234;2023-10-08T08:36:20;98383.75;;;19.35;64.49
21980;BME280;11154;48.558;9.234;2023-10-08T08:38:22;98386.44;;;19.35;63.68
21980;BME280;11154;48.558;9.234;2023-10-08T08:40:24;98388.75;;;19.38;64.53
21980;BME280;11154;48.558;9.234;2023-10-08T08:42:27;98391.25;;;19.39;63.97
21980;BME280;11154;48.558;9.234;2023-10-08T08:44:33;98379.25;;;19.42;63.91
21980;BME280;11154;48.558;9.234;2023-10-08T08:46:37;98381.72;;;19.43;63.98
21980;BME280;11154;48.558;9.234;2023-10-08T08:48:41;98390.91;;;19.49;63.86
21980;BME280;11154;48.558;9.234;2023-10-08T08:50:42;98394.44;;;19.49;64.69
21980;BME280;11154;48.558;9.234;2023-10-08T08:52:45;98410.50;;;19.57;66.72
21980;BME280;11154;48.558;9.234;2023-10-08T08:54:47;98410.13;;;19.60;65.21
21980;BME280;11154;48.558;9.234;2023-10-08T08:56:49;98423.41;;;19.61;64.65
21980;BME280;11154;48.558;9.234;2023-10-08T08:58:51;98430.91;;;19.66;64.14
21980;BME280;11154;48.558;9.234;2023-10-08T09:00:54;98436.56;;;19.71;65.60
21980;BME280;11154;48.558;9.234;2023-10-08T09:02:56;98428.91;;;19.74;64.55
21980;BME280;11154;48.558;9.234;2023-10-08T09:04:57;98436.22;;;19.80;65.52
21980;BME280;11154;48.558;9.234;2023-10-08T09:07:01;98428.56;;;19.84;65.65
21980;BME280;11154;48.558;9.234;2023-10-08T09:09:04;98430.66;;;19.88;65.07
21980;BME280;11154;48.558;9.234;2023-10-08T09:11:22;98425.72;;;19.92;65.48
21980;BME280;11154;48.558;9.234;2023-10-08T09:13:27;98427.81;;;19.96;65.25
21980;BME280;11154;48.558;9.234;2023-10-08T09:15:29;98422.88;;;20.00;66.06
21980;BME280;11154;48.558;9.234;2023-10-08T09:17:33;98427.69;;;20.04;66.26
21980;BME280;11154;48.558;9.234;2023-10-08T09:19:38;98431.47;;;20.10;66.01
21980;BME280;11154;48.558;9.234;2023-10-08T09:21:40;98431.69;;;20.15;66.44
21980;BME280;11154;48.558;9.234;2023-10-08T09:23:42;98439.84;;;20.21;65.39
21980;BME280;11154;48.558;9.234;2023-10-08T09:25:48;98453.81;;;20.31;65.39
21980;BME280;11154;48.558;9.234;2023-10-08T09:27:54;98452.00;;;20.38;64.90
21980;BME280;11154;48.558;9.234;2023-10-08T09:29:56;98439.56;;;20.43;64.87
21980;BME280;11154;48.558;9.234;2023-10-08T09:31:59;98443.75;;;20.52;65.46
21980;BME280;11154;48.558;9.234;2023-10-08T09:34:03;98450.66;;;20.61;67.84
21980;BME280;11154;48.558;9.234;2023-10-08T09:36:04;98440.44;;;20.63;68.81
21980;BME280;11154;48.558;9.234;2023-10-08T09:38:07;98448.19;;;20.66;67.05
21980;BME280;11154;48.558;9.234;2023-10-08T09:40:11;98441.53;;;20.69;67.34
21980;BME280;11154;48.558;9.234;2023-10-08T09:42:13;98441.75;;;20.74;67.16
21980;BME280;11154;48.558;9.234;2023-10-08T09:44:15;98445.75;;;20.78;66.84
21980;BME280;11154;48.558;9.234;2023-10-08T09:46:18;98441.59;;;20.82;66.78
21980;BME280;11154;48.558;9.234;2023-10-08T09:48:22;98443.72;;;20.86;67.63
21980;BME280;11154;48.558;9.234;2023-10-08T09:50:29;98441.66;;;20.95;67.21
21980;BME280;11154;48.558;9.234;2023-10-08T09:52:37;98441.47;;;21.03;67.38
21980;BME280;11154;48.558;9.234;2023-10-08T09:54:44;98433.56;;;21.07;67.48
21980;BME280;11154;48.558;9.234;2023-10-08T09:56:47;98435.44;;;21.13;66.35
21980;BME280;11154;48.558;9.234;2023-10-08T09:58:49;98435.69;;;21.25;66.88
21980;BME280;11154;48.558;9.234;2023-10-08T10:00:53;98428.00;;;21.35;65.07
21980;BME280;11154;48.558;9.234;2023-10-08T10:02:58;98425.91;;;21.43;63.54
21980;BME280;11154;48.558;9.234;2023-10-08T10:05:01;98437.22;;;21.53;62.61
21980;BME280;11154;48.558;9.234;2023-10-08T10:07:11;98434.69;;;21.65;63.81
21980;BME280;11154;48.558;9.234;2023-10-08T10:09:20;98430.97;;;21.72;62.79
21980;BME280;11154;48.558;9.234;2023-10-08T10:11:25;98430.94;;;21.78;60.33
21980;BME280;11154;48.558;9.234;2023-10-08T10:13:28;98430.31;;;21.83;59.02
21980;BME280;11154;48.558;9.234;2023-10-08T10:15:29;98430.53;;;21.88;57.38
21980;BME280;11154;48.558;9.234;2023-10-08T10:17:31;98418.03;;;21.93;56.58
21980;BME280;11154;48.558;9.234;2023-10-08T10:19:32;98422.19;;;21.96;54.24
21980;BME280;11154;48.558;9.234;2023-10-08T10:21:33;98426.13;;;22.00;53.81
21980;BME280;11154;48.558;9.234;2023-10-08T10:23:37;98423.63;;;22.05;54.27
21980;BME280;11154;48.558;9.234;2023-10-08T10:25:41;98425.91;;;22.08;53.85
21980;BME280;11154;48.558;9.234;2023-10-08T10:30:21;98425.69;;;22.16;53.73
21980;BME280;11154;48.558;9.234;2023-10-08T10:32:23;98414.63;;;22.17;53.15
21980;BME280;11154;48.558;9.234;2023-10-08T10:34:27;98419.41;;;22.22;53.81
21980;BME280;11154;48.558;9.234;2023-10-08T10:36:28;98417.13;;;22.25;53.55
21980;BME280;11154;48.558;9.234;2023-10-08T10:38:31;98408.78;;;22.27;53.53
21980;BME280;11154;48.558;9.234;2023-10-08T10:40:36;98410.66;;;22.33;53.84
21980;BME280;11154;48.558;9.234;2023-10-08T10:42:40;98407.53;;;22.36;54.92
21980;BME280;11154;48.558;9.234;2023-10-08T10:44:44;98408.75;;;22.40;56.73
21980;BME280;11154;48.558;9.234;2023-10-08T10:46:49;98400.00;;;22.44;55.19
21980;BME280;11154;48.558;9.234;2023-10-08T10:48:51;98409.97;;;22.50;55.98
21980;BME280;11154;48.558;9.234;2023-10-08T10:51:05;98411.59;;;22.57;56.14
21980;BME280;11154;48.558;9.234;2023-10-08T10:53:10;98408.25;;;22.62;56.13
21980;BME280;11154;48.558;9.234;2023-10-08T10:55:12;98414.09;;;22.65;52.49
21980;BME280;11154;48.558;9.234;2023-10-08T10:57:26;98414.06;;;22.72;51.71
21980;BME280;11154;48.558;9.234;2023-10-08T10:59:35;98409.00;;;22.82;56.60
21980;BME280;11154;48.558;9.234;2023-10-08T11:01:38;98402.47;;;22.89;54.10
21980;BME280;11154;48.558;9.234;2023-10-08T11:03:48;98407.25;;;22.94;51.97
21980;BME280;11154;48.558;9.234;2023-10-08T11:05:56;98395.75;;;22.98;53.58
21980;BME280;11154;48.558;9.234;2023-10-08T11:08:00;98398.25;;;23.06;54.84